Time;durP1;ratioP1;P1;durP2;ratioP2;P2;SDS_P1;SDS_P2;PMS_P1;PMS_P2;Temp;Humidity;BMP_temperature;BMP_pressure;BME280_temperature;BME280_humidity;BME280_pressure;Samples;Min_cycle;Max_cycle;Signal;HPM_P1;HPM_P2
2021/12/26 00:00:26;;;;;;;17.97;12.83;;;;;;;9.55;62.77;94228.28;4971829;28;20221;-75
2021/12/26 00:02:53;;;;;;;17.17;12.17;;;;;;;9.58;62.63;94238.16;4971420;28;20553;-75
2021/12/26 00:05:23;;;;;;;20.20;11.90;;;;;;;9.54;62.69;94235.13;4971319;28;20676;-76
2021/12/26 00:07:50;;;;;;;17.53;12.80;;;;;;;9.52;62.71;94238.75;4971492;28;20195;-76
2021/12/26 00:10:20;;;;;;;19.90;13.07;;;;;;;9.49;62.81;94244.13;4971415;28;20193;-76
2021/12/26 00:12:47;;;;;;;18.43;12.87;;;;;;;9.45;62.78;94233.41;4971129;28;20592;-75
2021/12/26 00:15:15;;;;;;;17.33;11.70;;;;;;;9.41;62.91;94246.59;4971657;28;20190;-75
2021/12/26 00:17:42;;;;;;;22.37;12.97;;;;;;;9.37;62.92;94237.59;4970800;28;20190;-76
2021/12/26 00:20:11;;;;;;;18.53;12.00;;;;;;;9.34;63.00;94243.81;4970862;28;20712;-75
2021/12/26 00:22:40;;;;;;;18.20;13.97;;;;;;;9.16;63.18;94215.69;4971471;28;20315;-75
2021/12/26 00:25:08;;;;;;;19.67;12.97;;;;;;;9.27;63.11;94237.66;4971304;28;20215;-76
2021/12/26 00:27:35;;;;;;;21.80;13.27;;;;;;;9.24;63.28;94241.31;4971583;28;20252;-76
2021/12/26 00:30:03;;;;;;;18.23;13.17;;;;;;;9.08;63.31;94223.25;4970600;28;20193;-76
2021/12/26 00:32:30;;;;;;;19.27;13.83;;;;;;;9.13;63.41;94235.56;4971077;28;20181;-75
2021/12/26 00:34:56;;;;;;;19.27;14.37;;;;;;;9.10;63.46;94218.78;4970789;28;20651;-75
2021/12/26 00:37:23;;;;;;;20.03;13.60;;;;;;;9.11;63.53;94228.06;4970587;28;20598;-75
2021/12/26 00:39:51;;;;;;;21.97;16.20;;;;;;;8.99;63.58;94219.78;4982507;28;20236;-75
2021/12/26 00:42:18;;;;;;;24.10;15.87;;;;;;;8.97;63.56;94223.41;4990158;28;20189;-76
2021/12/26 00:44:45;;;;;;;25.10;15.97;;;;;;;9.10;63.69;94248.59;4990189;28;20200;-75
2021/12/26 00:47:13;;;;;;;21.10;15.20;;;;;;;9.08;63.82;94246.19;4990322;28;20190;-75
2021/12/26 00:49:41;;;;;;;30.40;17.10;;;;;;;8.79;63.82;94216.47;4990172;28;20189;-76
2021/12/26 00:52:09;;;;;;;24.73;16.93;;;;;;;9.05;63.61;94257.47;4989999;28;20236;-75
2021/12/26 00:54:36;;;;;;;20.63;15.40;;;;;;;9.03;63.64;94253.47;4988629;28;20200;-75
2021/12/26 00:57:06;;;;;;;21.13;15.00;;;;;;;8.72;63.82;94215.44;4989927;28;20255;-75
2021/12/26 00:59:33;;;;;;;21.60;14.50;;;;;;;8.96;63.96;94252.41;4989743;28;20224;-76
2021/12/26 01:01:59;;;;;;;20.43;15.20;;;;;;;8.92;63.91;94254.44;4989996;28;20205;-76
2021/12/26 01:04:26;;;;;;;24.93;16.33;;;;;;;8.91;64.05;94244.38;4990428;28;20223;-77
2021/12/26 01:06:53;;;;;;;22.03;14.63;;;;;;;8.90;63.95;94251.22;4985123;28;20208;-76
2021/12/26 01:09:24;;;;;;;24.63;17.17;;;;;;;8.60;64.04;94205.56;4972927;28;20216;-78
2021/12/26 01:11:55;;;;;;;26.53;18.07;;;;;;;8.85;64.18;94255.09;4972793;28;20292;-76
2021/12/26 01:14:28;;;;;;;23.60;16.90;;;;;;;8.82;64.22;94243.47;4972034;28;20198;-77
2021/12/26 01:17:04;;;;;;;27.67;16.63;;;;;;;8.80;64.19;94242.78;4972783;28;20553;-77
2021/12/26 01:19:40;;;;;;;22.83;15.73;;;;;;;8.77;64.30;94246.41;4972501;28;20235;-77
2021/12/26 01:22:08;;;;;;;23.57;15.23;;;;;;;8.77;64.31;94237.97;4972490;28;20206;-78
2021/12/26 01:24:35;;;;;;;23.27;15.27;;;;;;;8.75;64.32;94235.53;4972741;28;20213;-77
2021/12/26 01:27:02;;;;;;;24.37;16.20;;;;;;;8.69;64.37;94225.91;4972733;28;20186;-77
2021/12/26 01:29:30;;;;;;;21.13;15.17;;;;;;;8.39;64.31;94181.03;4972519;28;20201;-77
2021/12/26 01:31:57;;;;;;;22.73;15.03;;;;;;;8.72;64.47;94220.53;4970343;28;20232;-77
2021/12/26 01:34:25;;;;;;;23.17;16.33;;;;;;;8.72;64.50;94215.44;4971619;28;20193;-76
2021/12/26 01:36:55;;;;;;;23.97;15.47;;;;;;;8.57;64.70;94209.16;4971855;28;20805;-76
2021/12/26 01:39:22;;;;;;;21.43;14.83;;;;;;;8.59;64.56;94183.53;4972153;28;20697;-76
2021/12/26 01:41:49;;;;;;;23.07;15.07;;;;;;;8.49;64.61;94204.75;4972465;28;20641;-77
2021/12/26 01:44:18;;;;;;;21.40;14.90;;;;;;;8.65;64.87;94194.00;4972552;28;20280;-75
2021/12/26 01:46:49;;;;;;;21.60;15.53;;;;;;;8.36;65.13;94188.91;4972093;28;20240;-76
2021/12/26 01:49:19;;;;;;;23.07;15.50;;;;;;;8.63;65.21;94198.41;4972407;28;20206;-77
2021/12/26 01:51:47;;;;;;;21.97;15.17;;;;;;;8.63;65.19;94218.00;4971893;28;20229;-77
2021/12/26 01:54:19;;;;;;;21.27;14.03;;;;;;;8.62;65.44;94213.84;4972302;28;20189;-76
2021/12/26 01:56:45;;;;;;;23.63;15.00;;;;;;;8.63;65.40;94216.25;4971807;28;20190;-77
2021/12/26 01:59:13;;;;;;;21.40;14.07;;;;;;;8.65;65.35;94205.94;4971495;28;20229;-76
2021/12/26 02:01:40;;;;;;;24.40;15.67;;;;;;;8.64;65.29;94209.44;4971510;28;20197;-76
2021/12/26 02:04:08;;;;;;;23.83;15.13;;;;;;;8.63;65.44;94203.50;4971819;28;20665;-77
2021/12/26 02:06:35;;;;;;;22.80;14.20;;;;;;;8.64;65.53;94219.63;4971299;28;20198;-75
2021/12/26 02:09:04;;;;;;;19.30;13.40;;;;;;;8.65;65.32;94195.75;4971812;28;20205;-76
2021/12/26 02:11:31;;;;;;;19.60;13.00;;;;;;;8.65;65.44;94213.59;4971563;28;20650;-77
2021/12/26 02:13:57;;;;;;;20.27;14.17;;;;;;;8.64;65.30;94187.28;4971641;28;20193;-76
2021/12/26 02:16:25;;;;;;;24.37;13.70;;;;;;;8.66;65.51;94202.44;4971860;28;20201;-76
2021/12/26 02:18:52;;;;;;;18.77;14.00;;;;;;;8.45;65.63;94156.75;4971642;28;20190;-76
2021/12/26 02:21:33;;;;;;;18.77;13.23;;;;;;;8.65;65.54;94194.00;4971984;28;20681;-76
2021/12/26 02:24:12;;;;;;;20.70;13.73;;;;;;;8.67;65.44;94204.84;4971244;28;20248;-78
2021/12/26 02:29:24;;;;;;;19.80;13.77;;;;;;;8.67;65.61;94199.75;4971871;28;20188;-77
2021/12/26 02:31:51;;;;;;;22.17;13.67;;;;;;;8.69;65.52;94197.06;4971631;28;20197;-76
2021/12/26 02:34:18;;;;;;;20.17;14.37;;;;;;;8.47;65.52;94158.22;4971629;28;20193;-76
2021/12/26 02:36:47;;;;;;;20.07;13.37;;;;;;;8.71;65.50;94206.16;4971380;28;20201;-76
2021/12/26 02:39:15;;;;;;;18.23;13.30;;;;;;;8.71;65.50;94201.06;4970910;28;20232;-76
2021/12/26 02:41:42;;;;;;;24.50;13.90;;;;;;;8.72;65.53;94191.66;4970796;28;20610;-76
2021/12/26 02:44:09;;;;;;;18.40;13.63;;;;;;;8.64;65.29;94194.94;4971239;28;20201;-76
2021/12/26 02:46:36;;;;;;;27.13;15.77;;;;;;;8.65;65.40;94168.50;4971676;28;20185;-77
2021/12/26 02:49:03;;;;;;;24.17;16.27;;;;;;;8.73;65.39;94213.69;4970284;28;20705;-77
2021/12/26 02:51:30;;;;;;;25.67;14.97;;;;;;;8.66;65.50;94189.69;4971137;28;20226;-76
2021/12/26 02:53:59;;;;;;;19.77;13.67;;;;;;;8.75;65.57;94201.59;4971396;28;20204;-77
2021/12/26 02:56:26;;;;;;;21.47;14.23;;;;;;;8.75;65.63;94201.59;4971029;28;20638;-77
2021/12/26 02:58:53;;;;;;;19.57;14.03;;;;;;;8.68;65.32;94187.78;4971258;28;20658;-77
2021/12/26 03:01:22;;;;;;;20.13;13.40;;;;;;;8.75;65.30;94201.59;4971090;28;20229;-77
2021/12/26 03:03:49;;;;;;;18.90;13.80;;;;;;;8.76;65.22;94203.19;4970775;28;20708;-78
2021/12/26 03:06:22;;;;;;;20.37;14.47;;;;;;;8.27;65.49;94115.88;4970805;28;20197;-77
2021/12/26 03:08:51;;;;;;;20.33;12.77;;;;;;;8.48;65.40;94164.13;4970625;28;20212;-77
2021/12/26 03:11:19;;;;;;;22.23;13.13;;;;;;;8.75;65.26;94184.56;4971121;28;20583;-78
2021/12/26 03:13:46;;;;;;;18.93;12.73;;;;;;;8.66;65.39;94187.94;4970210;28;20205;-78
2021/12/26 03:16:14;;;;;;;19.70;12.87;;;;;;;8.73;65.39;94186.47;4970933;28;20193;-75
2021/12/26 03:18:40;;;;;;;17.33;12.27;;;;;;;8.75;65.35;94199.06;4972578;28;20670;-76
2021/12/26 03:21:07;;;;;;;20.03;12.20;;;;;;;8.53;65.39;94156.88;4975096;28;20638;-76
2021/12/26 03:23:34;;;;;;;19.90;12.10;;;;;;;8.71;65.30;94178.13;4974624;28;20198;-76
2021/12/26 03:26:04;;;;;;;20.43;12.30;;;;;;;8.67;65.38;94171.69;4974710;28;20190;-76
2021/12/26 03:28:34;;;;;;;16.10;11.90;;;;;;;8.61;65.03;94153.63;4974491;28;20202;-76
2021/12/26 03:31:01;;;;;;;18.13;11.50;;;;;;;8.77;65.10;94177.59;4974607;28;20186;-76
2021/12/26 03:33:29;;;;;;;15.80;11.43;;;;;;;8.73;65.09;94188.19;4974385;28;20185;-77
2021/12/26 03:35:56;;;;;;;16.47;11.73;;;;;;;8.79;65.16;94196.09;4974728;28;20200;-76
2021/12/26 03:38:24;;;;;;;16.80;12.10;;;;;;;8.59;65.12;94158.84;4974109;28;20967;-76
2021/12/26 03:40:53;;;;;;;19.97;11.47;;;;;;;8.71;65.01;94188.31;4972770;28;20284;-76
2021/12/26 03:43:21;;;;;;;19.90;12.20;;;;;;;8.64;64.99;94168.66;4974355;28;20642;-77
2021/12/26 03:45:51;;;;;;;18.10;11.53;;;;;;;8.76;65.12;94198.94;4974486;28;20190;-77
2021/12/26 03:48:19;;;;;;;15.27;10.67;;;;;;;8.62;65.15;94191.72;4974515;28;20201;-76
2021/12/26 03:50:47;;;;;;;20.13;12.17;;;;;;;8.60;65.04;94187.72;4974306;28;20229;-77
2021/12/26 03:53:14;;;;;;;19.03;11.70;;;;;;;8.76;65.04;94209.13;4973894;28;20209;-77
2021/12/26 03:55:41;;;;;;;16.77;12.20;;;;;;;8.62;65.15;94190.91;4974042;28;20577;-77
2021/12/26 03:58:09;;;;;;;17.63;12.13;;;;;;;8.78;65.14;94209.78;4974473;28;20589;-79
2021/12/26 04:00:37;;;;;;;15.63;11.43;;;;;;;8.79;65.24;94215.69;4973991;28;20622;-76
2021/12/26 04:03:05;;;;;;;19.07;11.23;;;;;;;8.79;64.88;94193.53;4974229;28;20198;-76
2021/12/26 04:05:32;;;;;;;17.70;11.20;;;;;;;8.74;65.07;94200.00;4972062;28;20197;-76
2021/12/26 04:07:59;;;;;;;15.17;11.37;;;;;;;8.83;65.00;94211.13;4973690;28;20206;-76
2021/12/26 04:10:26;;;;;;;16.10;11.00;;;;;;;8.84;64.93;94225.47;4973905;28;20194;-77
2021/12/26 04:12:55;;;;;;;17.83;11.37;;;;;;;8.86;65.16;94210.84;4973910;28;20197;-76
2021/12/26 04:15:24;;;;;;;16.60;11.03;;;;;;;8.87;65.04;94225.19;4973831;28;20685;-76
2021/12/26 04:17:54;;;;;;;16.60;11.60;;;;;;;8.87;64.82;94231.09;4973662;28;20201;-76
2021/12/26 04:20:23;;;;;;;15.90;11.73;;;;;;;8.87;64.92;94212.44;4973328;28;20229;-76
2021/12/26 04:22:50;;;;;;;14.90;10.53;;;;;;;8.67;64.85;94187.00;4973686;28;20197;-75
2021/12/26 04:25:17;;;;;;;18.90;11.30;;;;;;;8.84;64.94;94210.97;4973737;28;20818;-76
2021/12/26 04:27:44;;;;;;;16.20;11.40;;;;;;;8.87;65.06;94215.78;4972169;28;20182;-77
2021/12/26 04:30:13;;;;;;;19.07;11.57;;;;;;;8.89;64.85;94213.91;4973752;28;20193;-76
2021/12/26 04:32:40;;;;;;;15.27;10.43;;;;;;;8.78;64.97;94198.78;4973519;28;20221;-77
2021/12/26 04:35:08;;;;;;;17.93;11.87;;;;;;;8.86;64.97;94213.41;4973421;28;20192;-77
2021/12/26 04:37:36;;;;;;;19.23;11.87;;;;;;;8.62;64.71;94175.63;4973364;28;20194;-77
2021/12/26 04:40:07;;;;;;;13.37;11.10;;;;;;;8.89;64.75;94229.19;4973549;28;20228;-77
2021/12/26 04:42:33;;;;;;;17.17;10.73;;;;;;;8.90;64.90;94233.38;4973096;28;20625;-77
2021/12/26 04:45:00;;;;;;;17.63;11.30;;;;;;;8.90;64.67;94240.22;4973490;28;20237;-77
2021/12/26 04:47:27;;;;;;;18.40;12.17;;;;;;;8.91;64.91;94234.19;4973467;28;20193;-77
2021/12/26 04:49:54;;;;;;;16.23;11.73;;;;;;;8.81;64.91;94208.72;4973249;28;20202;-77
2021/12/26 04:52:21;;;;;;;18.60;12.87;;;;;;;8.93;65.00;94232.28;4973379;28;20182;-77
2021/12/26 04:54:49;;;;;;;19.13;13.23;;;;;;;8.93;64.97;94232.28;4972890;28;20716;-78
2021/12/26 04:57:16;;;;;;;16.67;11.83;;;;;;;8.87;64.77;94232.84;4973205;28;20205;-77
2021/12/26 04:59:42;;;;;;;19.23;11.93;;;;;;;8.94;64.91;94221.94;4972040;28;20252;-76
2021/12/26 05:02:09;;;;;;;15.47;10.80;;;;;;;8.90;64.70;94225.72;4972776;28;20189;-76
2021/12/26 05:04:36;;;;;;;24.07;12.20;;;;;;;8.71;64.80;94200.28;4972977;28;20216;-77
2021/12/26 05:07:04;;;;;;;16.43;11.27;;;;;;;8.97;64.72;94221.66;4973384;28;20186;-76
2021/12/26 05:09:31;;;;;;;16.67;10.77;;;;;;;8.98;64.76;94240.31;4972535;28;20193;-77
2021/12/26 05:12:00;;;;;;;18.17;10.43;;;;;;;9.00;64.79;94238.44;4973192;28;20190;-76
2021/12/26 05:14:27;;;;;;;15.77;10.83;;;;;;;9.00;64.80;94239.25;4973000;28;20186;-76
2021/12/26 05:16:54;;;;;;;15.90;11.53;;;;;;;8.96;64.73;94229.47;4972880;28;20256;-76
2021/12/26 05:19:20;;;;;;;16.80;11.50;;;;;;;9.04;64.71;94244.88;4972304;28;20294;-76
2021/12/26 05:21:47;;;;;;;15.83;10.17;;;;;;;9.07;64.77;94238.66;4972442;28;20213;-76
2021/12/26 05:24:14;;;;;;;17.60;10.90;;;;;;;9.09;64.67;94249.56;4972057;28;20197;-77
2021/12/26 05:26:41;;;;;;;19.43;11.40;;;;;;;9.10;64.75;94251.94;4972743;28;20567;-76
2021/12/26 05:29:09;;;;;;;20.63;11.03;;;;;;;9.11;64.83;94245.09;4972415;28;20202;-76
2021/12/26 05:31:36;;;;;;;15.03;11.07;;;;;;;9.13;64.74;94249.13;4972494;28;20208;-76
2021/12/26 05:34:03;;;;;;;16.23;10.63;;;;;;;9.16;64.74;94255.72;4972112;28;20189;-77
2021/12/26 05:36:30;;;;;;;14.53;10.77;;;;;;;9.17;64.95;94244.56;4972342;28;20677;-76
2021/12/26 05:38:57;;;;;;;16.57;11.13;;;;;;;9.18;65.00;94254.59;4972280;28;20202;-77
2021/12/26 05:41:24;;;;;;;13.43;10.17;;;;;;;9.19;64.94;94253.66;4954732;28;20239;-76
2021/12/26 05:43:50;;;;;;;15.27;10.17;;;;;;;9.20;65.18;94245.09;4972389;28;20189;-77
2021/12/26 05:46:19;;;;;;;15.83;11.27;;;;;;;9.22;65.33;94250.03;4972275;28;20189;-76
2021/12/26 05:48:46;;;;;;;16.27;11.17;;;;;;;9.23;65.62;94249.09;4972231;28;20201;-77
2021/12/26 05:51:13;;;;;;;13.17;10.00;;;;;;;9.24;65.72;94248.13;4971961;28;20264;-77
2021/12/26 05:53:40;;;;;;;11.93;9.87;;;;;;;9.24;66.36;94231.09;4972254;28;20677;-77
2021/12/26 05:56:07;;;;;;;15.17;10.77;;;;;;;9.25;66.35;94227.59;4972241;28;20182;-77
2021/12/26 05:58:33;;;;;;;16.37;11.33;;;;;;;9.26;66.41;94221.56;4971946;28;20657;-77
2021/12/26 06:01:02;;;;;;;15.27;10.90;;;;;;;9.26;66.52;94211.34;4971916;28;20720;-77
2021/12/26 06:03:30;;;;;;;17.70;10.63;;;;;;;9.28;66.63;94211.19;4971703;28;20193;-78
2021/12/26 06:05:57;;;;;;;15.33;10.87;;;;;;;9.29;67.09;94205.16;4971926;28;20673;-78
2021/12/26 06:08:24;;;;;;;18.20;11.50;;;;;;;9.21;67.10;94162.50;4971680;28;20189;-77
2021/12/26 06:10:51;;;;;;;16.43;11.07;;;;;;;9.30;67.27;94191.47;4971491;28;20206;-77
2021/12/26 06:13:17;;;;;;;14.17;10.57;;;;;;;9.29;67.29;94208.53;4972018;28;20578;-76
2021/12/26 06:15:44;;;;;;;14.00;10.07;;;;;;;9.30;66.99;94187.16;4972103;28;20572;-77
2021/12/26 06:18:11;;;;;;;17.37;11.90;;;;;;;9.32;67.17;94184.44;4971616;28;20201;-76
2021/12/26 06:20:39;;;;;;;17.40;10.77;;;;;;;9.35;67.45;94191.81;4972026;28;20206;-77
2021/12/26 06:23:09;;;;;;;20.37;11.30;;;;;;;9.36;67.47;94180.66;4971552;28;20194;-77
2021/12/26 06:25:36;;;;;;;14.40;10.03;;;;;;;9.36;67.36;94178.13;4971727;28;20681;-76
2021/12/26 06:28:03;;;;;;;15.40;10.10;;;;;;;9.40;67.35;94178.63;4971743;28;20585;-76
2021/12/26 06:30:30;;;;;;;13.87;10.20;;;;;;;9.39;67.54;94172.72;4971590;28;20193;-76
2021/12/26 06:32:57;;;;;;;14.90;10.13;;;;;;;9.40;67.50;94186.28;4971249;28;20193;-76
2021/12/26 06:35:24;;;;;;;14.03;8.97;;;;;;;9.42;67.45;94159.69;4971515;28;20283;-75
2021/12/26 06:37:52;;;;;;;11.70;9.40;;;;;;;9.42;67.57;94174.22;4971613;28;20185;-76
2021/12/26 06:40:19;;;;;;;14.17;9.73;;;;;;;9.42;67.65;94187.78;4970853;28;20584;-76
2021/12/26 06:42:49;;;;;;;11.40;9.10;;;;;;;9.44;67.92;94190.97;4971271;28;20622;-76
2021/12/26 06:45:18;;;;;;;16.27;9.67;;;;;;;9.39;67.82;94184.69;4971173;28;20190;-75
2021/12/26 06:47:50;;;;;;;12.83;9.67;;;;;;;9.29;67.88;94188.09;4971233;28;20217;-75
2021/12/26 06:50:17;;;;;;;13.57;9.53;;;;;;;9.43;67.97;94201.34;4971460;28;20229;-76
2021/12/26 06:52:44;;;;;;;13.97;9.57;;;;;;;9.09;68.21;94145.78;4970399;28;20201;-77
2021/12/26 06:55:12;;;;;;;14.90;10.33;;;;;;;9.44;68.37;94210.59;4971678;28;20233;-76
2021/12/26 06:57:40;;;;;;;18.70;10.37;;;;;;;9.54;68.16;94242.78;4971357;28;20193;-77
2021/12/26 07:00:10;;;;;;;14.07;10.60;;;;;;;9.55;68.08;94231.63;4971948;28;20185;-76
2021/12/26 07:02:37;;;;;;;14.90;11.00;;;;;;;9.58;68.24;94250.13;4971398;28;20628;-75
2021/12/26 07:05:04;;;;;;;14.93;11.23;;;;;;;9.58;68.26;94238.16;4971214;28;20193;-77
2021/12/26 07:07:31;;;;;;;19.50;12.80;;;;;;;9.59;68.42;94251.75;4971154;28;20190;-78
2021/12/26 07:09:59;;;;;;;18.53;12.30;;;;;;;9.60;68.49;94253.38;4970798;28;20204;-77
2021/12/26 07:12:27;;;;;;;16.10;12.13;;;;;;;9.61;68.58;94239.66;4971480;28;20213;-81
2021/12/26 07:14:54;;;;;;;18.43;11.90;;;;;;;9.62;68.64;94246.34;4970740;28;20686;-75
2021/12/26 07:17:21;;;;;;;18.50;12.77;;;;;;;9.63;68.58;94245.41;4971584;28;20586;-76
2021/12/26 07:19:47;;;;;;;16.90;11.47;;;;;;;9.65;68.71;94251.97;4970891;28;20205;-74
2021/12/26 07:22:14;;;;;;;19.70;12.47;;;;;;;9.65;68.76;94257.09;4971256;28;20228;-74
2021/12/26 07:24:43;;;;;;;14.97;11.57;;;;;;;9.66;68.97;94248.47;4970489;28;20193;-74
2021/12/26 07:27:11;;;;;;;18.40;12.40;;;;;;;9.69;69.02;94255.06;4970994;28;20186;-76
2021/12/26 07:29:40;;;;;;;16.00;12.13;;;;;;;9.70;68.67;94239.59;4970772;28;20210;-76
2021/12/26 07:32:08;;;;;;;17.80;13.50;;;;;;;9.73;69.05;94253.81;4971099;28;20197;-76
2021/12/26 07:34:35;;;;;;;19.50;13.57;;;;;;;9.75;69.10;94245.06;4971021;28;20557;-76
2021/12/26 07:37:03;;;;;;;18.90;12.90;;;;;;;9.18;69.13;94156.88;4970978;28;20200;-77
2021/12/26 07:39:30;;;;;;;19.07;13.53;;;;;;;9.46;69.13;94201.06;4970641;28;20198;-77
2021/12/26 07:41:57;;;;;;;16.50;13.37;;;;;;;9.83;69.14;94251.22;4971075;28;20228;-77
2021/12/26 07:44:24;;;;;;;16.30;12.57;;;;;;;9.80;68.83;94227.59;4970851;28;20190;-78
2021/12/26 07:46:53;;;;;;;19.97;14.13;;;;;;;9.62;69.26;94211.41;4970577;28;20193;-77
2021/12/26 07:49:21;;;;;;;19.77;12.53;;;;;;;9.88;69.27;94237.06;4970815;28;20213;-76
2021/12/26 07:51:51;;;;;;;14.47;12.37;;;;;;;9.64;69.10;94183.22;4970220;28;20285;-77
2021/12/26 07:54:20;;;;;;;18.80;12.50;;;;;;;9.94;69.08;94244.16;4970531;28;20628;-75
2021/12/26 07:56:47;;;;;;;15.17;11.27;;;;;;;9.96;69.10;94224.38;4970247;28;20278;-76
2021/12/26 07:59:13;;;;;;;17.27;11.80;;;;;;;9.87;69.04;94224.44;4970852;28;20197;-76
2021/12/26 08:01:41;;;;;;;14.63;11.13;;;;;;;10.05;68.87;94217.56;4970274;28;20232;-77
2021/12/26 08:04:11;;;;;;;16.93;11.10;;;;;;;10.03;68.98;94243.28;4971427;28;20182;-76
2021/12/26 08:06:39;;;;;;;18.77;11.50;;;;;;;10.16;68.67;94219.94;4974155;28;20194;-77
2021/12/26 08:09:09;;;;;;;14.47;10.43;;;;;;;10.03;68.64;94196.50;4974241;28;20194;-77
2021/12/26 08:11:36;;;;;;;15.47;9.37;;;;;;;10.12;68.45;94205.84;4973838;28;20217;-78
2021/12/26 08:14:02;;;;;;;12.97;9.50;;;;;;;9.93;68.25;94137.00;4974186;28;20541;-76
2021/12/26 08:16:29;;;;;;;16.80;9.27;;;;;;;9.94;68.15;94147.09;4974695;28;20573;-77
2021/12/26 08:18:56;;;;;;;13.17;8.23;;;;;;;10.21;68.23;94170.94;4973853;28;20190;-77
2021/12/26 08:21:25;;;;;;;12.83;8.53;;;;;;;10.46;68.08;94207.72;4974862;28;20217;-75
2021/12/26 08:23:52;;;;;;;10.73;8.07;;;;;;;10.41;68.10;94195.41;4973900;28;20198;-79
2021/12/26 08:26:19;;;;;;;13.83;9.73;;;;;;;10.53;67.65;94212.09;4973003;28;20542;-72
2021/12/26 08:28:45;;;;;;;9.93;7.87;;;;;;;10.53;67.43;94201.88;4959727;28;20210;-74
2021/12/26 08:31:15;;;;;;;15.07;8.13;;;;;;;10.69;67.26;94208.84;4951911;29;20223;-75
2021/12/26 08:33:42;;;;;;;11.20;7.67;;;;;;;10.83;67.16;94222.81;4951824;29;20214;-76
2021/12/26 08:36:08;;;;;;;13.13;7.97;;;;;;;10.91;67.02;94224.63;4951822;29;20651;-74
2021/12/26 08:38:38;;;;;;;10.53;7.50;;;;;;;11.00;66.60;94233.97;4951594;29;20193;-72
2021/12/26 08:41:05;;;;;;;12.40;7.60;;;;;;;11.09;66.72;94219.44;4951197;29;20234;-75
2021/12/26 08:43:31;;;;;;;9.60;7.03;;;;;;;11.16;66.62;94231.50;4951851;29;20194;-75
2021/12/26 08:45:58;;;;;;;9.73;7.67;;;;;;;11.13;66.50;94229.22;4951922;29;20191;-73
2021/12/26 08:48:26;;;;;;;12.17;7.83;;;;;;;11.20;66.22;94207.19;4951123;29;20194;-73
2021/12/26 08:50:55;;;;;;;9.93;7.17;;;;;;;11.37;65.97;94222.63;4951348;29;20272;-73
2021/12/26 08:53:22;;;;;;;10.77;8.03;;;;;;;11.48;65.92;94222.34;4951047;29;20206;-73
2021/12/26 08:55:51;;;;;;;12.30;7.67;;;;;;;11.54;65.85;94222.53;4951680;29;20198;-75
2021/12/26 08:58:18;;;;;;;12.03;8.07;;;;;;;11.62;65.73;94233.78;4951329;29;20838;-81
2021/12/26 09:00:45;;;;;;;10.17;7.23;;;;;;;11.66;65.59;94227.38;4951682;29;20662;-75
2021/12/26 09:03:11;;;;;;;10.30;7.83;;;;;;;11.74;65.35;94225.66;4951336;29;20230;-75
2021/12/26 09:05:38;;;;;;;9.87;7.73;;;;;;;11.70;65.43;94211.53;4951400;29;20195;-76
2021/12/26 09:08:06;;;;;;;10.63;7.40;;;;;;;11.79;65.12;94199.56;4951319;29;20249;-75
2021/12/26 09:10:33;;;;;;;9.97;7.60;;;;;;;11.96;65.17;94210.66;4951577;29;20205;-76
2021/12/26 09:13:02;;;;;;;11.20;7.90;;;;;;;12.01;65.01;94205.88;4951324;29;20190;-77
2021/12/26 09:15:29;;;;;;;8.57;7.10;;;;;;;12.07;64.66;94200.09;4950256;28;20195;-77
2021/12/26 09:17:55;;;;;;;10.77;7.50;;;;;;;11.89;64.70;94161.00;4950811;29;20701;-77
2021/12/26 09:20:25;;;;;;;10.17;7.50;;;;;;;12.19;64.46;94206.53;4951106;29;20285;-79
2021/12/26 09:22:52;;;;;;;10.53;7.80;;;;;;;12.25;64.40;94197.38;4949702;28;20218;-73
2021/12/26 09:25:20;;;;;;;11.37;7.37;;;;;;;12.24;64.20;94198.34;4958955;28;20774;-76
2021/12/26 09:27:46;;;;;;;9.70;7.40;;;;;;;12.37;64.01;94221.75;4969588;28;20292;-76
2021/12/26 09:30:16;;;;;;;12.30;7.63;;;;;;;12.44;63.87;94196.28;4969450;28;20708;-75
2021/12/26 09:32:43;;;;;;;11.33;8.23;;;;;;;12.30;63.79;94170.31;4970889;28;20213;-73
2021/12/26 09:35:12;;;;;;;10.67;8.53;;;;;;;12.41;63.63;94184.56;4969500;28;20274;-81
2021/12/26 09:37:39;;;;;;;12.03;7.83;;;;;;;12.48;63.68;94187.31;4969230;28;20201;-77
2021/12/26 09:40:07;;;;;;;11.73;8.27;;;;;;;12.68;63.50;94219.31;4968545;28;20208;-76
2021/12/26 09:42:35;;;;;;;13.30;8.93;;;;;;;12.74;63.34;94215.31;4959045;28;20218;-74
2021/12/26 09:45:02;;;;;;;16.10;9.90;;;;;;;12.77;63.24;94215.78;4949686;29;20198;-78
2021/12/26 09:47:31;;;;;;;14.77;9.23;;;;;;;12.85;63.09;94222.66;4950756;29;20186;-80
2021/12/26 09:49:58;;;;;;;12.43;8.83;;;;;;;12.79;63.11;94192.53;4950633;29;20190;-77
2021/12/26 09:52:25;;;;;;;10.40;7.77;;;;;;;13.00;62.81;94207.44;4949145;29;20206;-74
2021/12/26 09:54:54;;;;;;;13.17;8.03;;;;;;;13.05;62.64;94213.66;4949813;29;20259;-74
2021/12/26 09:57:23;;;;;;;11.10;8.43;;;;;;;13.12;62.41;94206.09;4949470;29;20194;-76
2021/12/26 09:59:53;;;;;;;12.33;7.67;;;;;;;12.95;62.10;94182.25;4949568;28;20252;-75
2021/12/26 10:02:20;;;;;;;10.23;7.40;;;;;;;13.22;62.03;94222.16;4949469;29;20222;-75
2021/12/26 10:04:50;;;;;;;9.90;6.87;;;;;;;13.27;61.61;94213.94;4949228;29;20730;-75
2021/12/26 10:07:18;;;;;;;9.27;6.57;;;;;;;13.32;61.44;94203.97;4949593;29;20202;-76
2021/12/26 10:09:47;;;;;;;9.67;6.23;;;;;;;13.38;61.20;94213.56;4949582;28;20198;-75
2021/12/26 10:12:15;;;;;;;10.50;6.23;;;;;;;13.29;61.12;94192.25;4949098;29;20203;-74
2021/12/26 10:14:44;;;;;;;8.60;6.03;;;;;;;13.48;60.85;94208.25;4949535;29;20190;-75
2021/12/26 10:17:13;;;;;;;7.90;5.60;;;;;;;13.30;60.77;94172.53;4949261;29;20266;-74
2021/12/26 10:19:42;;;;;;;9.47;6.40;;;;;;;13.57;60.48;94207.25;4949236;29;20186;-73
2021/12/26 10:22:10;;;;;;;7.37;5.87;;;;;;;13.62;60.31;94227.28;4949213;29;20296;-73
2021/12/26 10:24:40;;;;;;;8.87;6.00;;;;;;;13.66;59.91;94229.34;4949221;29;20258;-72
2021/12/26 10:27:09;;;;;;;9.17;5.67;;;;;;;13.61;59.93;94197.44;4948525;29;20198;-72
2021/12/26 10:29:38;;;;;;;8.27;5.60;;;;;;;13.76;59.70;94232.50;4949166;29;20213;-82
2021/12/26 10:32:10;;;;;;;11.37;6.53;;;;;;;13.78;59.42;94224.66;4949193;29;20225;-79
2021/12/26 10:34:42;;;;;;;6.97;6.20;;;;;;;13.86;59.19;94210.94;4949645;29;20202;-76
2021/12/26 10:37:13;;;;;;;9.80;6.17;;;;;;;13.90;59.23;94205.28;4964645;28;20198;-80
2021/12/26 10:39:43;;;;;;;8.03;6.27;;;;;;;13.94;58.87;94210.88;4970523;28;20186;-78
2021/12/26 10:42:16;;;;;;;7.60;5.90;;;;;;;13.98;58.52;94214.72;4971190;28;20225;-82
2021/12/26 10:44:45;;;;;;;9.73;5.70;;;;;;;14.00;58.31;94200.75;4971417;28;20226;-80
2021/12/26 10:47:18;;;;;;;10.30;5.50;;;;;;;14.05;58.28;94201.03;4970827;28;20189;-76
2021/12/26 10:49:49;;;;;;;9.40;5.50;;;;;;;14.10;57.72;94210.78;4971733;28;20201;-77
2021/12/26 10:52:23;;;;;;;11.03;6.77;;;;;;;14.02;57.71;94188.50;4932533;28;1176527;-76
2021/12/26 10:54:53;;;;;;;6.47;5.73;;;;;;;14.19;57.45;94201.25;4974976;28;20203;-78
2021/12/26 10:57:26;;;;;;;10.07;5.67;;;;;;;14.26;57.35;94212.47;4963580;28;20199;-80
2021/12/26 11:00:17;;;;;;;7.33;6.10;;;;;;;14.34;57.05;94203.88;4951164;29;20190;-80
2021/12/26 11:02:47;;;;;;;9.17;5.97;;;;;;;14.16;57.01;94163.00;4950516;29;20313;-81
2021/12/26 11:05:17;;;;;;;9.77;5.50;;;;;;;14.29;56.65;94182.06;4949077;29;20249;-80
2021/12/26 11:07:50;;;;;;;13.23;6.70;;;;;;;14.37;56.43;94193.25;4949576;29;20222;-80
2021/12/26 11:10:25;;;;;;;10.83;5.73;;;;;;;14.62;56.26;94238.41;4949899;29;20202;-80
2021/12/26 11:12:55;;;;;;;9.53;5.40;;;;;;;14.57;56.12;94216.75;4950109;29;20190;-79
2021/12/26 11:15:25;;;;;;;8.33;6.20;;;;;;;14.62;56.08;94199.00;4949908;29;20555;-77
2021/12/26 11:17:56;;;;;;;13.63;6.90;;;;;;;14.81;55.81;94221.69;4949736;29;20213;-80
2021/12/26 11:20:29;;;;;;;8.67;6.57;;;;;;;14.86;55.83;94216.81;4950322;29;20643;-83
2021/12/26 11:22:57;;;;;;;10.93;6.13;;;;;;;14.85;55.55;94206.69;4949190;29;20609;-76
2021/12/26 11:25:26;;;;;;;9.73;6.07;;;;;;;14.66;55.54;94162.47;4949939;29;20205;-87
2021/12/26 11:27:53;;;;;;;9.53;6.87;;;;;;;14.95;55.54;94197.75;4950407;29;20199;-82
2021/12/26 11:30:21;;;;;;;9.17;6.40;;;;;;;14.79;55.36;94172.94;4950000;29;20563;-79
2021/12/26 11:32:48;;;;;;;8.20;6.47;;;;;;;15.09;55.37;94209.03;4949406;29;20190;-82